Time;durP1;ratioP1;P1;durP2;ratioP2;P2;SDS_P1;SDS_P2;PMS_P1;PMS_P2;Temp;Humidity;BMP_temperature;BMP_pressure;BME280_temperature;BME280_humidity;BME280_pressure;Samples;Min_cycle;Max_cycle;Signal;HPM_P1;HPM_P2
2021/06/19 00:00:29;;;;;;;12.20;6.90;;;615.30;1894.40;;;;;;5071574;28;20093;-83
2021/06/19 00:02:55;;;;;;;17.95;6.93;;;615.30;1894.40;;;;;;5071094;28;20017;-81
2021/06/19 00:05:21;;;;;;;12.50;6.75;;;640.00;1894.40;;;;;;5071501;28;20122;-84
2021/06/19 00:07:47;;;;;;;16.33;6.70;;;640.00;1894.40;;;;;;5070931;28;20021;-80
2021/06/19 00:10:14;;;;;;;15.40;6.95;;;640.00;1894.40;;;;;;5071411;28;20545;-81
2021/06/19 00:12:40;;;;;;;12.77;6.13;;;615.30;1894.40;;;;;;5071208;28;20070;-84
2021/06/19 00:15:08;;;;;;;13.52;6.53;;;615.20;1894.40;;;;;;5071409;28;20097;-80
2021/06/19 00:17:35;;;;;;;10.43;7.00;;;615.10;1920.00;;;;;;5071433;28;20468;-81
2021/06/19 00:20:01;;;;;;;16.25;7.75;;;615.00;1920.00;;;;;;5070749;28;20736;-81
2021/06/19 00:22:27;;;;;;;13.65;7.05;;;615.00;1945.60;;;;;;5071466;28;20473;-81
2021/06/19 00:24:52;;;;;;;12.00;6.05;;;614.90;1945.60;;;;;;5070273;28;20102;-82
2021/06/19 00:27:18;;;;;;;11.27;6.13;;;614.90;1945.60;;;;;;5070304;28;20017;-81
2021/06/19 00:29:44;;;;;;;22.27;7.00;;;614.80;1945.60;;;;;;5070692;28;20020;-81
2021/06/19 00:32:10;;;;;;;11.85;6.72;;;614.90;1945.60;;;;;;5070938;28;20027;-81
2021/06/19 00:34:36;;;;;;;10.60;6.68;;;614.90;1945.60;;;;;;5070612;28;20059;-80
2021/06/19 00:37:02;;;;;;;11.80;6.55;;;614.80;1945.60;;;;;;5070417;28;20021;-80
2021/06/19 00:39:28;;;;;;;11.82;6.07;;;614.80;1945.60;;;;;;5071231;28;20074;-84
2021/06/19 00:41:53;;;;;;;13.75;7.28;;;614.80;1920.00;;;;;;5074542;28;20040;-81
2021/06/19 00:44:20;;;;;;;16.80;6.55;;;614.80;1920.00;;;;;;5074607;28;20417;-83
2021/06/19 00:46:53;;;;;;;16.30;6.88;;;614.80;1945.60;;;;;;5074686;28;20028;-81
2021/06/19 00:49:20;;;;;;;16.35;8.10;;;614.80;1945.60;;;;;;5074974;28;20028;-80
2021/06/19 00:51:46;;;;;;;16.23;7.22;;;614.40;1971.20;;;;;;5074306;28;20036;-81
2021/06/19 00:54:12;;;;;;;12.65;7.30;;;614.50;1971.20;;;;;;5074664;28;20029;-80
2021/06/19 00:56:39;;;;;;;12.80;7.15;;;614.50;1996.80;;;;;;5074549;28;20023;-80
2021/06/19 00:59:06;;;;;;;14.07;7.20;;;614.60;1971.20;;;;;;5074188;28;20027;-83
2021/06/19 01:01:33;;;;;;;15.38;6.93;;;614.60;1971.20;;;;;;5075822;28;20354;-80
2021/06/19 01:04:00;;;;;;;14.60;8.07;;;614.60;1971.20;;;;;;5074204;28;20043;-82
2021/06/19 01:06:27;;;;;;;14.23;7.53;;;614.60;1971.20;;;;;;5075630;28;20078;-80
2021/06/19 01:08:53;;;;;;;17.73;7.47;;;614.60;1971.20;;;;;;5074336;28;20029;-80
2021/06/19 01:11:22;;;;;;;12.32;8.30;;;614.60;1971.20;;;;;;5075406;28;20088;-83
2021/06/19 01:13:51;;;;;;;16.73;7.95;;;614.50;1971.20;;;;;;5075296;28;20017;-80
2021/06/19 01:16:18;;;;;;;16.23;7.75;;;614.40;1996.80;;;;;;5074148;28;20052;-81
2021/06/19 01:18:44;;;;;;;16.02;8.27;;;614.40;1996.80;;;;;;5074199;28;20031;-83
2021/06/19 01:21:20;;;;;;;15.10;7.72;;;589.70;2022.40;;;;;;5073837;28;20032;-81
2021/06/19 01:23:47;;;;;;;16.05;7.35;;;589.60;2022.40;;;;;;5074163;28;20055;-84
2021/06/19 01:26:18;;;;;;;15.07;8.10;;;589.50;2048.00;;;;;;5073702;28;20025;-80
2021/06/19 01:28:46;;;;;;;13.35;7.88;;;589.50;2048.00;;;;;;5074110;28;20097;-83
2021/06/19 01:31:12;;;;;;;13.25;7.85;;;589.50;2048.00;;;;;;5073682;28;20031;-80
2021/06/19 01:33:39;;;;;;;16.20;7.75;;;589.60;2048.00;;;;;;5075393;28;20032;-80
2021/06/19 01:36:06;;;;;;;12.70;7.88;;;589.60;2048.00;;;;;;5073851;28;20032;-83
2021/06/19 01:38:32;;;;;;;12.23;7.97;;;589.60;2048.00;;;;;;5073562;28;20077;-80
2021/06/19 01:40:58;;;;;;;12.38;7.63;;;589.60;2048.00;;;;;;5074763;28;20019;-82
2021/06/19 01:43:24;;;;;;;17.73;7.55;;;589.60;2048.00;;;;;;5073457;28;20503;-80
2021/06/19 01:45:50;;;;;;;16.70;7.65;;;589.60;2022.40;;;;;;5073729;28;20029;-83
2021/06/19 01:48:16;;;;;;;15.07;8.63;;;589.60;2048.00;;;;;;5073614;28;20036;-83
2021/06/19 01:50:41;;;;;;;14.88;7.70;;;589.60;2022.40;;;;;;5073630;28;20539;-80
2021/06/19 01:53:07;;;;;;;15.82;8.02;;;589.50;2048.00;;;;;;5072760;28;20029;-80
2021/06/19 01:55:33;;;;;;;13.95;7.90;;;589.50;2048.00;;;;;;5073600;28;20035;-83
2021/06/19 01:58:00;;;;;;;11.02;8.07;;;589.30;2073.60;;;;;;5073338;28;20025;-81
2021/06/19 02:00:35;;;;;;;12.80;8.00;;;589.20;2099.20;;;;;;5074667;28;20029;-80
2021/06/19 02:03:00;;;;;;;14.50;7.78;;;589.10;2099.20;;;;;;5074525;28;20032;-82
2021/06/19 02:05:26;;;;;;;11.88;7.38;;;589.10;2099.20;;;;;;5074487;28;20411;-80
2021/06/19 02:08:01;;;;;;;16.75;8.15;;;589.10;2124.80;;;;;;5073145;28;20365;-82
2021/06/19 02:10:31;;;;;;;18.52;8.32;;;588.90;2124.80;;;;;;5073006;28;20037;-84
2021/06/19 02:12:59;;;;;;;18.77;8.85;;;589.00;2124.80;;;;;;5073243;28;20027;-83
2021/06/19 02:15:25;;;;;;;13.30;7.35;;;589.00;2124.80;;;;;;5073278;28;20013;-83
2021/06/19 02:17:51;;;;;;;11.02;7.45;;;589.00;2099.20;;;;;;5072854;28;20020;-80
2021/06/19 02:20:19;;;;;;;14.30;9.02;;;588.90;2124.80;;;;;;5073160;28;20153;-83
2021/06/19 02:22:45;;;;;;;16.92;7.68;;;589.00;2124.80;;;;;;5072833;28;20036;-80
2021/06/19 02:25:15;;;;;;;13.02;7.88;;;589.00;2124.80;;;;;;5074334;28;20107;-80
2021/06/19 02:27:50;;;;;;;18.60;8.75;;;588.90;2124.80;;;;;;5072705;28;20036;-80
2021/06/19 02:30:17;;;;;;;14.38;8.85;;;564.10;2150.40;;;;;;5072529;28;20021;-81
2021/06/19 02:32:43;;;;;;;15.00;8.30;;;564.00;2176.00;;;;;;5065174;28;20098;-81
2021/06/19 02:35:09;;;;;;;12.75;8.15;;;563.90;2176.00;;;;;;5089645;28;20067;-79
2021/06/19 02:37:35;;;;;;;14.70;8.43;;;563.90;2201.60;;;;;;5073027;28;20142;-80
2021/06/19 02:40:01;;;;;;;19.98;8.93;;;563.80;2201.60;;;;;;5073798;28;20131;-81
2021/06/19 02:42:26;;;;;;;15.52;8.43;;;563.80;2201.60;;;;;;5072895;28;20016;-83
2021/06/19 02:44:52;;;;;;;15.15;8.18;;;563.80;2201.60;;;;;;5072745;28;20055;-83
2021/06/19 02:47:18;;;;;;;17.40;10.43;;;563.80;2201.60;;;;;;5073243;28;20048;-85
2021/06/19 02:49:43;;;;;;;16.30;11.07;;;563.80;2201.60;;;;;;5089475;28;20523;-85
2021/06/19 02:52:10;;;;;;;21.70;13.15;;;563.70;2201.60;;;;;;5089761;28;20024;-81
2021/06/19 02:54:40;;;;;;;23.65;15.52;;;563.70;2227.20;;;;;;5072667;28;20511;-84
2021/06/19 02:57:09;;;;;;;30.60;14.25;;;563.70;2227.20;;;;;;5072704;28;20078;-81
2021/06/19 02:59:38;;;;;;;20.45;13.57;;;563.70;2201.60;;;;;;5072405;28;20029;-81
2021/06/19 03:02:04;;;;;;;20.23;14.32;;;563.90;2201.60;;;;;;5089274;28;20468;-84
2021/06/19 03:04:30;;;;;;;22.83;14.00;;;563.80;2201.60;;;;;;5072537;28;20032;-81
2021/06/19 03:06:56;;;;;;;21.88;13.77;;;563.70;2201.60;;;;;;5082291;28;20024;-81
2021/06/19 03:09:22;;;;;;;25.05;13.57;;;563.70;2201.60;;;;;;5073401;28;20039;-81
2021/06/19 03:11:47;;;;;;;19.15;10.55;;;563.80;2201.60;;;;;;5088969;28;20476;-83
2021/06/19 03:14:15;;;;;;;19.77;12.13;;;563.90;2176.00;;;;;;5078113;28;20469;-82
2021/06/19 03:16:41;;;;;;;15.32;9.02;;;563.90;2176.00;;;;;;5086285;28;20032;-81
2021/06/19 03:19:09;;;;;;;16.60;9.30;;;564.00;2176.00;;;;;;5072649;28;20021;-82
2021/06/19 03:21:35;;;;;;;13.63;8.90;;;564.10;2150.40;;;;;;5071872;28;20059;-83
2021/06/19 03:24:01;;;;;;;12.77;8.88;;;564.10;2150.40;;;;;;5071630;28;20182;-85
2021/06/19 03:26:27;;;;;;;11.48;8.35;;;588.80;2124.80;;;;;;5072043;28;20103;-85
2021/06/19 03:28:53;;;;;;;19.73;9.00;;;588.90;2124.80;;;;;;5072035;28;20028;-82
2021/06/19 03:31:18;;;;;;;12.20;7.82;;;588.80;2124.80;;;;;;5072242;28;20032;-85
2021/06/19 03:33:44;;;;;;;15.32;7.93;;;588.90;2124.80;;;;;;5071974;28;20021;-85
2021/06/19 03:36:10;;;;;;;15.88;7.90;;;588.80;2124.80;;;;;;5073469;28;20024;-82
2021/06/19 03:38:36;;;;;;;11.90;8.05;;;564.10;2124.80;;;;;;5071523;28;20024;-86
2021/06/19 03:41:02;;;;;;;16.95;8.23;;;564.10;2150.40;;;;;;5071793;28;20029;-82
2021/06/19 03:43:27;;;;;;;15.50;7.65;;;564.10;2176.00;;;;;;5071325;28;20039;-85
2021/06/19 03:45:53;;;;;;;17.88;7.78;;;563.90;2201.60;;;;;;5071796;28;20033;-81
2021/06/19 03:48:19;;;;;;;15.75;7.80;;;563.90;2176.00;;;;;;5072638;28;20027;-80
2021/06/19 03:50:44;;;;;;;10.38;8.18;;;563.90;2201.60;;;;;;5071300;28;20499;-85
2021/06/19 03:53:10;;;;;;;17.67;8.45;;;563.90;2176.00;;;;;;5071470;28;20124;-79
2021/06/19 03:55:36;;;;;;;13.52;7.40;;;563.90;2201.60;;;;;;5072041;28;20046;-80
2021/06/19 03:58:04;;;;;;;11.93;7.05;;;563.80;2201.60;;;;;;5071017;28;20069;-80
2021/06/19 04:00:30;;;;;;;13.65;8.00;;;563.70;2201.60;;;;;;5070959;28;20039;-80
2021/06/19 04:02:57;;;;;;;11.05;7.97;;;563.90;2201.60;;;;;;5070700;28;20017;-79
2021/06/19 04:05:23;;;;;;;15.38;7.88;;;564.00;2201.60;;;;;;5070850;28;20140;-79
2021/06/19 04:07:49;;;;;;;15.55;7.90;;;564.00;2176.00;;;;;;5070807;28;20013;-79
2021/06/19 04:10:16;;;;;;;13.82;8.18;;;564.10;2176.00;;;;;;5070562;28;20039;-79
2021/06/19 04:12:42;;;;;;;15.52;7.15;;;564.10;2150.40;;;;;;5070748;28;20059;-80
2021/06/19 04:15:10;;;;;;;14.13;7.13;;;588.80;2150.40;;;;;;5070339;28;20059;-78
2021/06/19 04:17:36;;;;;;;13.13;7.43;;;588.80;2150.40;;;;;;5070494;28;20040;-76
2021/06/19 04:20:05;;;;;;;12.48;7.35;;;588.90;2150.40;;;;;;5071939;28;20464;-77
2021/06/19 04:22:30;;;;;;;11.75;7.55;;;588.90;2150.40;;;;;;5070379;28;20032;-75
2021/06/19 04:24:56;;;;;;;13.18;7.30;;;588.90;2150.40;;;;;;5070429;28;20408;-77
2021/06/19 04:27:22;;;;;;;18.35;8.18;;;589.00;2124.80;;;;;;5071612;28;20112;-76
2021/06/19 04:29:48;;;;;;;15.88;7.63;;;589.00;2124.80;;;;;;5071633;28;20039;-78
2021/06/19 04:32:16;;;;;;;11.93;7.90;;;589.10;2150.40;;;;;;5070283;28;20024;-77
2021/06/19 04:34:42;;;;;;;10.65;7.10;;;589.00;2150.40;;;;;;5071767;28;20017;-76
2021/06/19 04:37:12;;;;;;;10.55;7.15;;;589.00;2150.40;;;;;;5071674;28;20541;-76
2021/06/19 04:39:42;;;;;;;13.73;7.97;;;589.10;2150.40;;;;;;5071231;28;20021;-76
2021/06/19 04:42:09;;;;;;;9.50;7.63;;;588.90;2176.00;;;;;;5066628;28;20037;-75
2021/06/19 04:47:08;;;;;;;15.18;9.50;;;589.10;2150.40;;;;;;5071678;28;20177;-76
2021/06/19 04:49:34;;;;;;;14.55;8.75;;;589.20;2150.40;;;;;;5070088;28;20025;-77
2021/06/19 04:52:00;;;;;;;11.57;7.43;;;589.20;2150.40;;;;;;5071672;28;20032;-77
2021/06/19 04:54:25;;;;;;;16.02;9.02;;;589.30;2150.40;;;;;;5071182;28;20091;-77
2021/06/19 04:56:51;;;;;;;12.80;7.43;;;589.20;2176.00;;;;;;5071576;28;20085;-77
2021/06/19 04:59:17;;;;;;;14.27;8.05;;;589.30;2150.40;;;;;;5071341;28;20030;-78
2021/06/19 05:01:42;;;;;;;10.38;7.90;;;589.20;2150.40;;;;;;5070049;28;20024;-77
2021/06/19 05:04:08;;;;;;;14.38;8.75;;;589.20;2150.40;;;;;;5071438;28;20033;-78
2021/06/19 05:06:35;;;;;;;12.80;8.85;;;589.40;2150.40;;;;;;5071316;28;20025;-77
2021/06/19 05:09:03;;;;;;;10.80;8.95;;;589.50;2150.40;;;;;;5070080;28;20543;-77
2021/06/19 05:11:28;;;;;;;11.35;7.60;;;589.50;2150.40;;;;;;5069887;28;20434;-76
2021/06/19 05:13:54;;;;;;;13.57;8.50;;;589.70;2124.80;;;;;;5071399;28;20020;-77
2021/06/19 05:16:20;;;;;;;10.93;8.13;;;589.70;2124.80;;;;;;5071133;28;20070;-77
2021/06/19 05:18:45;;;;;;;12.07;8.93;;;589.70;2124.80;;;;;;5071405;28;20021;-77
2021/06/19 05:21:11;;;;;;;9.25;7.57;;;589.70;2124.80;;;;;;5070741;28;20031;-77
2021/06/19 05:23:37;;;;;;;14.43;8.77;;;614.50;2099.20;;;;;;5070573;28;20155;-77
2021/06/19 05:26:03;;;;;;;19.38;12.93;;;614.60;2099.20;;;;;;5071205;28;20031;-77
2021/06/19 05:28:28;;;;;;;17.30;8.27;;;614.70;2073.60;;;;;;5073109;28;20024;-77
2021/06/19 05:30:54;;;;;;;14.65;8.75;;;614.70;2099.20;;;;;;5074497;28;20377;-77
2021/06/19 05:33:20;;;;;;;10.80;7.95;;;614.80;2073.60;;;;;;5074232;28;20058;-77
2021/06/19 05:35:46;;;;;;;16.63;9.88;;;614.80;2099.20;;;;;;5072795;28;20056;-77
2021/06/19 05:38:11;;;;;;;10.95;9.13;;;615.00;2073.60;;;;;;5061782;28;20036;-78
2021/06/19 05:40:37;;;;;;;16.27;9.80;;;615.00;2048.00;;;;;;5060744;28;20120;-78
2021/06/19 05:43:03;;;;;;;13.90;8.43;;;615.00;2048.00;;;;;;5074418;28;20033;-78
2021/06/19 05:45:28;;;;;;;13.20;7.28;;;615.20;2048.00;;;;;;5074534;28;20044;-78
2021/06/19 05:47:54;;;;;;;10.57;7.43;;;615.20;2022.40;;;;;;5074498;28;20020;-78
2021/06/19 05:50:20;;;;;;;15.73;8.27;;;615.30;2022.40;;;;;;5074388;28;20024;-77
2021/06/19 05:52:46;;;;;;;12.20;7.80;;;640.00;1996.80;;;;;;5072670;28;20520;-77
2021/06/19 05:55:11;;;;;;;12.52;7.63;;;640.00;1996.80;;;;;;5072889;28;20024;-77
2021/06/19 05:57:37;;;;;;;13.80;8.85;;;640.00;1971.20;;;;;;5074183;28;20028;-78
2021/06/19 06:00:09;;;;;;;13.43;7.63;;;640.20;1945.60;;;;;;5073768;28;20071;-78
2021/06/19 06:02:35;;;;;;;14.93;7.68;;;640.20;1920.00;;;;;;5074048;28;20025;-78
2021/06/19 06:05:00;;;;;;;12.82;6.88;;;640.30;1920.00;;;;;;5072459;28;20040;-78
2021/06/19 06:07:26;;;;;;;13.90;6.97;;;640.30;1920.00;;;;;;5073986;28;20055;-78
2021/06/19 06:09:52;;;;;;;11.25;8.45;;;640.40;1920.00;;;;;;5072524;28;20533;-78
2021/06/19 06:12:18;;;;;;;15.63;11.73;;;640.60;1920.00;;;;;;5074243;28;20025;-78
2021/06/19 06:14:43;;;;;;;12.35;6.90;;;640.60;1920.00;;;;;;5073515;28;20027;-78
2021/06/19 06:17:10;;;;;;;11.48;7.05;;;640.70;1920.00;;;;;;5074090;28;20024;-78
2021/06/19 06:19:36;;;;;;;10.65;6.85;;;640.80;1894.40;;;;;;5072475;28;20024;-78
2021/06/19 06:22:04;;;;;;;13.70;6.15;;;640.90;1868.80;;;;;;5073179;28;20025;-78
2021/06/19 06:24:29;;;;;;;10.88;6.93;;;640.90;1868.80;;;;;;5072019;28;20404;-78
2021/06/19 06:26:55;;;;;;;14.55;7.50;;;665.70;1894.40;;;;;;5072314;28;20047;-78
2021/06/19 06:29:21;;;;;;;17.40;7.13;;;665.70;1894.40;;;;;;5072374;28;20029;-78
2021/06/19 06:31:51;;;;;;;10.32;7.25;;;665.90;1894.40;;;;;;5072098;28;20017;-78
2021/06/19 06:34:19;;;;;;;15.02;7.82;;;665.90;1868.80;;;;;;5073423;28;20499;-77
2021/06/19 06:36:44;;;;;;;11.13;7.43;;;666.00;1868.80;;;;;;5071873;28;20028;-78
2021/06/19 06:39:10;;;;;;;11.02;6.63;;;666.10;1843.20;;;;;;5072846;28;20029;-76
2021/06/19 06:41:36;;;;;;;10.40;7.15;;;666.20;1868.80;;;;;;5072942;28;20499;-77
2021/06/19 06:44:02;;;;;;;19.92;7.47;;;666.30;1817.60;;;;;;5072873;28;20036;-76
2021/06/19 06:46:28;;;;;;;11.55;7.28;;;666.40;1817.60;;;;;;5073407;28;20451;-81
2021/06/19 06:48:54;;;;;;;9.48;6.45;;;666.50;1843.20;;;;;;5071836;28;20120;-78
2021/06/19 06:51:19;;;;;;;10.45;6.88;;;691.20;1792.00;;;;;;5072279;28;20024;-78
2021/06/19 06:53:45;;;;;;;11.35;6.55;;;691.20;1792.00;;;;;;5073103;28;20038;-77
2021/06/19 06:56:11;;;;;;;9.30;7.00;;;691.30;1792.00;;;;;;5073164;28;20016;-77
2021/06/19 06:58:36;;;;;;;18.15;7.47;;;691.50;1766.40;;;;;;5071653;28;20031;-76
2021/06/19 07:01:02;;;;;;;11.68;6.75;;;691.60;1792.00;;;;;;5073171;28;20560;-77
2021/06/19 07:03:28;;;;;;;14.85;8.95;;;691.60;1766.40;;;;;;5071707;28;20558;-77
2021/06/19 07:05:54;;;;;;;12.13;7.20;;;691.70;1766.40;;;;;;5073008;28;20036;-77
2021/06/19 07:08:19;;;;;;;12.13;6.55;;;691.80;1766.40;;;;;;5072936;28;20052;-76
2021/06/19 07:10:45;;;;;;;14.13;7.03;;;691.90;1740.80;;;;;;5071476;28;20417;-80
2021/06/19 07:13:11;;;;;;;9.88;6.72;;;692.00;1766.40;;;;;;5072922;28;20108;-79
2021/06/19 07:15:37;;;;;;;11.32;6.78;;;692.10;1715.20;;;;;;5072648;28;20016;-78
2021/06/19 07:18:03;;;;;;;14.48;7.80;;;716.80;1740.80;;;;;;5072782;28;20105;-78
2021/06/19 07:20:29;;;;;;;14.68;7.03;;;716.90;1715.20;;;;;;5071396;28;20429;-78
2021/06/19 07:22:55;;;;;;;13.35;6.63;;;716.90;1715.20;;;;;;5072426;28;20530;-76
2021/06/19 07:25:21;;;;;;;9.55;6.63;;;717.00;1740.80;;;;;;5071134;28;20082;-78
2021/06/19 07:27:53;;;;;;;13.10;7.00;;;717.10;1689.60;;;;;;5072401;28;20024;-79
2021/06/19 07:30:20;;;;;;;12.75;6.93;;;717.20;1664.00;;;;;;5070645;28;20042;-78
2021/06/19 07:32:45;;;;;;;18.00;7.57;;;717.30;1689.60;;;;;;5072039;28;20515;-77
2021/06/19 07:35:11;;;;;;;13.43;7.10;;;717.40;1689.60;;;;;;5071052;28;20025;-77
2021/06/19 07:37:37;;;;;;;13.52;7.10;;;717.40;1715.20;;;;;;5071998;28;20023;-77
2021/06/19 07:40:04;;;;;;;14.02;6.97;;;717.60;1664.00;;;;;;5071822;28;20393;-78
2021/06/19 07:42:31;;;;;;;29.27;7.63;;;717.70;1664.00;;;;;;5071679;28;20028;-79
2021/06/19 07:44:57;;;;;;;14.35;6.53;;;717.70;1638.40;;;;;;5072052;28;20098;-78
2021/06/19 07:47:23;;;;;;;10.45;6.80;;;742.40;1715.20;;;;;;5071684;28;20023;-78
2021/06/19 07:49:49;;;;;;;11.05;6.20;;;742.40;1689.60;;;;;;5071610;28;20099;-77
2021/06/19 07:52:14;;;;;;;9.00;6.30;;;742.60;1689.60;;;;;;5071625;28;20044;-78
2021/06/19 07:54:40;;;;;;;13.45;6.72;;;742.60;1638.40;;;;;;5070894;28;20380;-78
2021/06/19 07:57:07;;;;;;;10.57;6.80;;;742.60;1638.40;;;;;;5070580;28;20028;-78
2021/06/19 07:59:34;;;;;;;12.82;6.90;;;742.70;1638.40;;;;;;5070277;28;20503;-78
2021/06/19 08:02:01;;;;;;;10.15;6.40;;;742.80;1638.40;;;;;;5070745;28;20033;-78
2021/06/19 08:04:27;;;;;;;9.90;6.55;;;742.90;1612.80;;;;;;5070247;28;20060;-78
2021/06/19 08:06:53;;;;;;;8.43;5.85;;;742.90;1612.80;;;;;;5070708;28;20032;-78
2021/06/19 08:09:19;;;;;;;8.77;6.50;;;743.00;1612.80;;;;;;5070370;28;20032;-78
2021/06/19 08:11:45;;;;;;;14.15;6.25;;;743.00;1612.80;;;;;;5071917;28;20071;-78
2021/06/19 08:14:10;;;;;;;9.15;5.82;;;743.20;1587.20;;;;;;5071714;28;20028;-79
2021/06/19 08:16:36;;;;;;;10.63;5.72;;;743.20;1561.60;;;;;;5071464;28;20082;-78
2021/06/19 08:19:02;;;;;;;9.40;5.65;;;743.10;1561.60;;;;;;5070583;28;20036;-78
2021/06/19 08:21:28;;;;;;;10.90;5.82;;;743.30;1587.20;;;;;;5070267;28;20029;-78
2021/06/19 08:23:56;;;;;;;13.52;6.30;;;768.00;1561.60;;;;;;5071013;28;20044;-78
2021/06/19 08:26:22;;;;;;;12.05;5.95;;;768.10;1510.40;;;;;;5070247;28;20098;-78
2021/06/19 08:28:48;;;;;;;12.13;5.90;;;768.10;1536.00;;;;;;5070259;28;20059;-78
2021/06/19 08:31:13;;;;;;;12.80;5.88;;;768.20;1536.00;;;;;;5069108;28;20036;-78
2021/06/19 08:33:39;;;;;;;9.68;5.75;;;768.40;1561.60;;;;;;5071656;28;20447;-78
2021/06/19 08:36:05;;;;;;;12.05;6.55;;;768.40;1510.40;;;;;;5071218;28;20104;-77
2021/06/19 08:38:31;;;;;;;10.57;5.65;;;768.40;1484.80;;;;;;5071319;28;20021;-77
2021/06/19 08:40:59;;;;;;;10.85;5.88;;;768.50;1484.80;;;;;;5071071;28;20495;-77
2021/06/19 08:43:24;;;;;;;17.67;6.70;;;768.60;1510.40;;;;;;5070064;28;20098;-78
2021/06/19 08:45:51;;;;;;;17.52;5.70;;;768.70;1510.40;;;;;;5069365;28;20469;-77
2021/06/19 08:48:18;;;;;;;11.20;5.97;;;768.70;1484.80;;;;;;5071379;28;20384;-77
2021/06/19 08:50:45;;;;;;;10.23;6.32;;;768.60;1484.80;;;;;;5071194;28;20027;-77
2021/06/19 08:53:11;;;;;;;11.00;6.15;;;768.60;1484.80;;;;;;5069740;28;20124;-77
2021/06/19 08:55:37;;;;;;;7.63;5.20;;;768.70;1484.80;;;;;;5071154;28;20173;-77
2021/06/19 08:58:04;;;;;;;10.82;5.93;;;768.70;1484.80;;;;;;5071143;28;20384;-78
2021/06/19 09:00:30;;;;;;;8.93;5.82;;;768.80;1459.20;;;;;;5071822;28;20017;-77
2021/06/19 09:02:56;;;;;;;12.75;5.43;;;768.90;1459.20;;;;;;5073770;28;20052;-77
2021/06/19 09:05:28;;;;;;;9.88;5.47;;;793.60;1484.80;;;;;;5075069;28;20032;-82
2021/06/19 09:07:55;;;;;;;7.47;5.03;;;793.70;1459.20;;;;;;5074831;28;20476;-79
2021/06/19 09:10:34;;;;;;;11.48;5.05;;;793.60;1459.20;;;;;;5073813;28;20025;-81
2021/06/19 09:13:11;;;;;;;10.23;5.18;;;793.70;1484.80;;;;;;5071753;28;20350;-80
2021/06/19 09:15:54;;;;;;;6.82;5.25;;;793.70;1433.60;;;;;;5070911;28;20537;-79
2021/06/19 09:18:30;;;;;;;8.57;5.13;;;794.00;1433.60;;;;;;5072610;28;20027;-79
2021/06/19 09:21:03;;;;;;;8.02;5.55;;;794.10;1459.20;;;;;;5070864;28;20420;-78
2021/06/19 09:23:40;;;;;;;10.80;5.75;;;794.20;1433.60;;;;;;5072930;28;20060;-79
2021/06/19 09:26:28;;;;;;;17.52;7.88;;;794.20;1408.00;;;;;;5072143;28;20558;-79
2021/06/19 09:29:15;;;;;;;8.32;5.90;;;794.30;1382.40;;;;;;5074433;28;20016;-78
2021/06/19 09:31:52;;;;;;;9.23;4.80;;;794.40;1408.00;;;;;;5072420;28;20025;-78
2021/06/19 09:34:22;;;;;;;12.05;5.63;;;794.50;1382.40;;;;;;5071931;28;20365;-78
2021/06/19 09:36:55;;;;;;;6.85;4.00;;;819.20;1331.20;;;;;;5074428;28;20017;-78
2021/06/19 09:39:23;;;;;;;10.25;4.35;;;819.20;1356.80;;;;;;5072108;28;20066;-79
2021/06/19 09:41:54;;;;;;;5.85;4.15;;;819.30;1331.20;;;;;;5074516;28;20017;-80
2021/06/19 09:44:40;;;;;;;8.52;4.32;;;819.30;1356.80;;;;;;5070896;28;20024;-79
2021/06/19 09:47:07;;;;;;;9.70;3.75;;;819.30;1331.20;;;;;;5072783;28;20103;-78
2021/06/19 09:49:35;;;;;;;6.32;4.28;;;819.20;1305.60;;;;;;5074185;28;20092;-80
2021/06/19 09:52:02;;;;;;;6.55;4.65;;;819.40;1331.20;;;;;;5073877;28;20031;-78
2021/06/19 09:54:28;;;;;;;15.70;4.63;;;819.30;1331.20;;;;;;5072759;28;20031;-79
2021/06/19 09:56:59;;;;;;;7.32;4.28;;;819.30;1305.60;;;;;;5072914;28;20087;-81
2021/06/19 09:59:29;;;;;;;5.63;3.75;;;819.30;1331.20;;;;;;5073224;28;20053;-83
2021/06/19 10:01:57;;;;;;;7.15;5.32;;;819.30;1356.80;;;;;;5074488;28;20021;-81
2021/06/19 10:04:25;;;;;;;6.53;3.10;;;819.50;1305.60;;;;;;5073712;28;20520;-87
2021/06/19 10:06:52;;;;;;;5.78;3.47;;;819.80;1280.00;;;;;;5073413;28;20055;-84
2021/06/19 10:09:18;;;;;;;5.70;3.40;;;819.80;1280.00;;;;;;5071647;28;20024;-83
2021/06/19 10:11:47;;;;;;;6.95;3.47;;;819.70;1203.20;;;;;;5073516;28;20021;-85
2021/06/19 10:14:19;;;;;;;8.23;3.67;;;819.70;1254.40;;;;;;5072973;28;20028;-84
2021/06/19 10:16:48;;;;;;;10.40;3.97;;;819.80;1305.60;;;;;;5073022;28;20017;-80
2021/06/19 10:19:18;;;;;;;5.63;3.90;;;820.10;1305.60;;;;;;5072993;28;20043;-79
2021/06/19 10:21:44;;;;;;;9.93;3.72;;;820.10;1280.00;;;;;;5073934;28;20024;-81
2021/06/19 10:24:11;;;;;;;8.60;3.47;;;844.90;1305.60;;;;;;5072521;28;20040;-89
2021/06/19 10:26:38;;;;;;;5.72;3.33;;;844.90;1254.40;;;;;;5073700;28;20024;-80
2021/06/19 10:29:05;;;;;;;4.70;3.60;;;845.20;1280.00;;;;;;5074141;28;20013;-79
2021/06/19 10:31:38;;;;;;;6.07;4.13;;;845.20;1254.40;;;;;;5073596;28;20095;-79
2021/06/19 10:34:27;;;;;;;17.23;4.20;;;845.10;1280.00;;;;;;5071671;28;20028;-79
2021/06/19 10:37:03;;;;;;;6.35;4.28;;;845.20;1305.60;;;;;;5071703;28;20032;-81
2021/06/19 10:39:41;;;;;;;;;;;845.20;1280.00;;;;;;5072711;28;20023;-81
2021/06/19 10:42:28;;;;;;;8.50;3.40;;;845.40;1305.60;;;;;;5071550;28;19911;-80
2021/06/19 10:45:04;;;;;;;9.07;3.72;;;845.40;1305.60;;;;;;5073189;28;20036;-85
2021/06/19 10:47:33;;;;;;;3.97;3.55;;;845.50;1280.00;;;;;;5072480;28;20024;-86
2021/06/19 10:50:01;;;;;;;9.07;3.70;;;845.60;1305.60;;;;;;5069743;28;20082;-77
2021/06/19 10:52:31;;;;;;;10.13;3.63;;;845.10;1305.60;;;;;;5072498;28;20028;-90
2021/06/19 10:55:20;;;;;;;8.88;3.55;;;845.20;1305.60;;;;;;5073465;28;20021;-88
2021/06/19 10:57:50;;;;;;;9.00;4.13;;;845.20;1331.20;;;;;;5060040;28;20691;-78
2021/06/19 11:00:36;;;;;;;6.53;3.33;;;845.20;1305.60;;;;;;5068745;28;20484;-79
2021/06/19 11:03:07;;;;;;;5.50;2.95;;;845.20;1305.60;;;;;;5054013;28;20028;-89
2021/06/19 11:05:42;;;;;;;6.65;3.30;;;845.10;1305.60;;;;;;5071475;28;20055;-87
2021/06/19 11:08:08;;;;;;;6.50;3.78;;;845.30;1280.00;;;;;;5054366;28;20119;-88
2021/06/19 11:10:49;;;;;;;5.97;3.30;;;845.30;1254.40;;;;;;5058679;28;20509;-81
2021/06/19 11:13:34;;;;;;;8.35;3.47;;;845.30;1254.40;;;;;;5068400;28;20034;-82
2021/06/19 11:16:05;;;;;;;5.80;3.25;;;845.60;1280.00;;;;;;5068782;28;20033;-84
2021/06/19 11:18:52;;;;;;;10.20;3.80;;;845.60;1254.40;;;;;;5071557;28;20024;-85
2021/06/19 11:21:20;;;;;;;5.72;3.42;;;845.60;1203.20;;;;;;5070537;28;20035;-83
2021/06/19 11:24:04;;;;;;;9.57;3.42;;;845.50;1228.80;;;;;;5070817;28;20048;-88
2021/06/19 11:27:00;;;;;;;7.85;3.28;;;845.60;1254.40;;;;;;5071635;28;20024;-90
2021/06/19 11:29:34;;;;;;;8.13;3.40;;;870.40;1177.60;;;;;;5070851;28;20107;-88
2021/06/19 11:32:24;;;;;;;6.15;3.55;;;870.40;1177.60;;;;;;5071193;28;20056;-88
2021/06/19 11:34:51;;;;;;;7.82;2.95;;;870.50;1177.60;;;;;;5079175;28;20032;-82
2021/06/19 11:37:17;;;;;;;4.82;3.13;;;870.40;1177.60;;;;;;5071674;28;20017;-87
2021/06/19 11:39:43;;;;;;;3.45;2.97;;;870.50;1203.20;;;;;;5071472;28;20043;-79
2021/06/19 11:42:09;;;;;;;10.60;3.10;;;870.40;1203.20;;;;;;5070920;28;20029;-81
2021/06/19 11:44:43;;;;;;;9.82;3.38;;;870.50;1177.60;;;;;;5072785;28;20093;-82
2021/06/19 11:47:09;;;;;;;5.80;2.65;;;870.40;1152.00;;;;;;5071531;28;20020;-92
2021/06/19 11:49:38;;;;;;;4.03;2.40;;;870.80;1126.40;;;;;;5072587;28;20032;-82
2021/06/19 11:52:05;;;;;;;4.55;2.83;;;870.60;1100.80;;;;;;5071740;28;20033;-86
2021/06/19 11:54:31;;;;;;;4.65;2.83;;;870.60;1100.80;;;;;;5071932;28;20136;-87
2021/06/19 11:56:58;;;;;;;5.80;2.40;;;870.60;1049.60;;;;;;5071858;28;20024;-87
2021/06/19 11:59:26;;;;;;;6.05;2.90;;;870.70;1075.20;;;;;;5071845;28;20086;-88
2021/06/19 12:01:53;;;;;;;5.65;3.03;;;870.60;1100.80;;;;;;5071052;28;20437;-88
2021/06/19 12:04:24;;;;;;;3.90;2.30;;;870.70;1075.20;;;;;;5072309;28;20036;-83
2021/06/19 12:06:53;;;;;;;3.65;2.65;;;870.70;1075.20;;;;;;5071026;28;20055;-82
2021/06/19 12:09:36;;;;;;;5.07;2.30;;;870.80;1126.40;;;;;;5071345;28;20388;-81
2021/06/19 12:12:11;;;;;;;5.63;2.72;;;870.80;1075.20;;;;;;5071399;28;20425;-82
2021/06/19 12:14:39;;;;;;;6.95;2.75;;;870.60;1049.60;;;;;;5071256;28;20028;-82
2021/06/19 12:17:06;;;;;;;6.13;2.75;;;870.70;1049.60;;;;;;5070975;28;20024;-86